createdAt,value
2023-03-16T00:02:19.660Z,0.82
2023-03-16T00:05:21.205Z,1.88
2023-03-16T00:08:22.901Z,1.17
2023-03-16T00:11:28.224Z,1.52
2023-03-16T00:14:32.263Z,1.30
2023-03-16T00:17:34.683Z,1.35
2023-03-16T00:20:36.207Z,1.08
2023-03-16T00:23:37.748Z,0.95
2023-03-16T00:26:39.279Z,1.38
2023-03-16T00:29:48.355Z,1.13
2023-03-16T00:32:49.946Z,1.50
2023-03-16T00:36:02.072Z,1.15
2023-03-16T00:39:05.420Z,2.00
2023-03-16T00:42:07.354Z,2.33
2023-03-16T00:45:09.774Z,1.00
2023-03-16T00:48:11.735Z,0.88
2023-03-16T00:51:16.452Z,1.23
2023-03-16T00:54:18.198Z,1.00
2023-03-16T00:57:21.520Z,1.42
2023-03-16T01:00:26.602Z,1.48
2023-03-16T01:03:28.355Z,2.05
2023-03-16T01:06:30.362Z,1.40
2023-03-16T01:09:36.720Z,1.67
2023-03-16T01:12:38.250Z,1.08
2023-03-16T01:15:40.160Z,0.85
2023-03-16T01:18:42.102Z,1.83
2023-03-16T01:21:43.673Z,0.77
2023-03-16T01:24:46.722Z,2.45
2023-03-16T01:27:48.190Z,1.20
2023-03-16T01:30:53.930Z,1.63
2023-03-16T01:33:55.573Z,1.87
2023-03-16T01:37:02.888Z,0.50
2023-03-16T01:40:24.624Z,3.03
2023-03-16T01:43:28.887Z,1.35
2023-03-16T01:46:32.548Z,1.38
2023-03-16T01:49:38.360Z,2.15
2023-03-16T01:52:40.324Z,0.93
2023-03-16T01:55:42.905Z,0.60
2023-03-16T01:58:46.348Z,1.83
2023-03-16T02:01:48.982Z,1.17
2023-03-16T02:05:07.498Z,0.98
2023-03-16T02:08:12.411Z,2.30
2023-03-16T02:11:18.000Z,0.75
2023-03-16T02:14:30.384Z,0.57
2023-03-16T02:17:33.997Z,0.82
2023-03-16T02:20:48.924Z,1.75
2023-03-16T02:23:51.535Z,1.92
2023-03-16T02:27:01.838Z,1.10
2023-03-16T02:30:15.481Z,1.33
2023-03-16T02:33:33.976Z,1.15
2023-03-16T02:36:38.010Z,0.82
2023-03-16T02:39:39.974Z,0.63
2023-03-16T02:42:42.593Z,1.08
2023-03-16T02:45:53.545Z,1.75
2023-03-16T02:49:16.235Z,1.23
2023-03-16T02:52:17.899Z,1.52
2023-03-16T02:55:19.534Z,2.40
2023-03-16T02:58:21.678Z,0.75
2023-03-16T03:01:24.224Z,1.20
2023-03-16T03:04:25.756Z,1.67
2023-03-16T03:07:31.723Z,1.15
2023-03-16T03:10:37.974Z,1.23
2023-03-16T03:13:39.615Z,1.00
2023-03-16T03:16:47.193Z,1.65
2023-03-16T03:19:50.371Z,1.13
2023-03-16T03:22:54.684Z,1.63
2023-03-16T03:25:59.926Z,1.35
2023-03-16T03:29:02.409Z,1.58
2023-03-16T03:32:04.783Z,0.80
2023-03-16T03:35:07.608Z,1.52
2023-03-16T03:38:09.140Z,1.35
2023-03-16T03:41:11.164Z,1.00
2023-03-16T03:44:14.056Z,1.60
2023-03-16T03:47:15.623Z,0.80
2023-03-16T03:50:17.657Z,1.80
2023-03-16T03:53:29.318Z,1.63
2023-03-16T03:57:03.640Z,1.73
2023-03-16T04:00:11.289Z,1.05
2023-03-16T04:03:17.508Z,1.00
2023-03-16T04:06:20.312Z,1.00
2023-03-16T04:09:21.941Z,1.73
2023-03-16T04:12:24.257Z,1.35
2023-03-16T04:15:27.325Z,1.50
2023-03-16T04:18:40.838Z,1.48
2023-03-16T04:21:44.549Z,1.08
2023-03-16T04:24:46.192Z,1.70
2023-03-16T04:27:48.786Z,1.35
2023-03-16T04:30:54.562Z,1.25
2023-03-16T04:34:02.317Z,1.00
2023-03-16T04:37:04.017Z,1.00
2023-03-16T04:40:15.465Z,1.02
2023-03-16T04:43:19.450Z,0.98
2023-03-16T04:46:22.270Z,1.45
2023-03-16T04:49:24.732Z,0.57
2023-03-16T04:52:26.389Z,1.98
2023-03-16T04:55:28.193Z,1.48
2023-03-16T04:58:29.881Z,2.47
2023-03-16T05:01:33.006Z,1.52
2023-03-16T05:04:36.946Z,1.10
2023-03-16T05:07:41.415Z,1.48
2023-03-16T05:10:44.619Z,0.98
2023-03-16T05:13:46.227Z,2.83
2023-03-16T05:16:47.987Z,0.85
2023-03-16T05:19:50.353Z,2.00
2023-03-16T05:22:53.490Z,0.60
2023-03-16T05:26:01.402Z,2.75
2023-03-16T05:29:05.930Z,1.50
2023-03-16T05:32:08.369Z,2.42
2023-03-16T05:35:13.458Z,1.73
2023-03-16T05:38:15.847Z,1.05
2023-03-16T05:41:18.749Z,1.45
2023-03-16T05:44:39.003Z,1.10
2023-03-16T05:47:49.327Z,1.83
2023-03-16T05:50:51.240Z,1.42
2023-03-16T05:53:56.607Z,1.40
2023-03-16T05:57:06.988Z,0.98
2023-03-16T06:00:14.483Z,2.00
2023-03-16T06:03:22.719Z,1.20
2023-03-16T06:06:25.972Z,2.65
2023-03-16T06:09:33.737Z,1.95
2023-03-16T06:12:38.229Z,1.30
2023-03-16T06:15:40.499Z,3.90
2023-03-16T06:18:42.546Z,1.70
2023-03-16T06:21:45.156Z,1.30
2023-03-16T06:24:47.302Z,1.50
2023-03-16T06:27:52.838Z,1.90
2023-03-16T06:30:56.233Z,2.60
2023-03-16T06:34:01.181Z,2.25
2023-03-16T06:37:03.951Z,1.10
2023-03-16T06:40:06.252Z,2.58
2023-03-16T06:43:09.145Z,2.80
2023-03-16T06:46:11.200Z,2.60
2023-03-16T06:49:12.901Z,4.13
2023-03-16T06:52:14.861Z,1.65
2023-03-16T06:55:16.522Z,2.80
2023-03-16T06:58:21.291Z,3.78
2023-03-16T07:01:23.217Z,2.50
2023-03-16T07:04:25.027Z,2.08
2023-03-16T07:07:48.288Z,2.50
2023-03-16T07:10:54.444Z,2.67
2023-03-16T07:13:56.316Z,2.70
2023-03-16T07:16:58.328Z,4.53
2023-03-16T07:20:00.919Z,3.92
2023-03-16T07:23:02.510Z,1.90
2023-03-16T07:26:04.045Z,2.85
2023-03-16T07:29:08.014Z,2.50
2023-03-16T07:32:09.978Z,2.80
2023-03-16T07:35:13.430Z,2.92
2023-03-16T07:38:15.099Z,3.25
2023-03-16T07:41:16.752Z,3.45
2023-03-16T07:44:18.337Z,2.10
2023-03-16T07:47:26.389Z,2.17
2023-03-16T07:50:31.091Z,2.30
2023-03-16T07:53:32.959Z,2.65
2023-03-16T07:56:49.870Z,4.38
2023-03-16T08:00:14.022Z,3.30
2023-03-16T08:03:16.966Z,4.15
2023-03-16T08:06:21.369Z,4.78
2023-03-16T08:09:23.083Z,6.50
2023-03-16T08:12:24.926Z,5.43
2023-03-16T08:15:26.776Z,4.20
2023-03-16T08:18:34.923Z,7.75
2023-03-16T08:21:53.113Z,6.90
2023-03-16T08:24:58.552Z,3.80
2023-03-16T08:28:00.286Z,6.75
2023-03-16T08:31:01.957Z,5.38
2023-03-16T08:34:19.521Z,4.55
2023-03-16T08:37:22.070Z,8.23
2023-03-16T08:40:29.603Z,6.45
2023-03-16T08:43:33.605Z,7.35
2023-03-16T08:46:35.645Z,4.20
2023-03-16T08:49:38.135Z,5.95
2023-03-16T08:52:44.970Z,6.05
2023-03-16T08:55:46.645Z,6.97
2023-03-16T08:58:50.490Z,4.30
2023-03-16T09:01:52.879Z,5.55
2023-03-16T09:04:54.682Z,7.10
2023-03-16T09:07:56.487Z,5.57
2023-03-16T09:11:07.508Z,4.90
2023-03-16T09:14:08.982Z,4.47
2023-03-16T09:17:11.705Z,4.47
2023-03-16T09:20:22.482Z,3.88
2023-03-16T09:23:29.056Z,5.30
2023-03-16T09:26:30.614Z,5.05
2023-03-16T09:29:33.271Z,3.70
2023-03-16T09:32:37.244Z,2.85
2023-03-16T09:35:38.961Z,2.88
2023-03-16T09:38:42.274Z,2.42
2023-03-16T09:41:48.781Z,4.63
2023-03-16T09:45:13.740Z,5.32
2023-03-16T09:48:17.121Z,3.30
2023-03-16T09:51:41.604Z,7.13
2023-03-16T09:55:26.133Z,4.63
2023-03-16T09:59:07.023Z,6.50
2023-03-16T10:03:17.715Z,4.63
2023-03-16T10:06:19.363Z,5.28
2023-03-16T10:10:01.962Z,4.22
2023-03-16T10:13:05.523Z,3.67
2023-03-16T10:16:30.690Z,3.35
2023-03-16T10:19:49.841Z,4.18
2023-03-16T10:22:53.013Z,4.13
2023-03-16T10:25:56.241Z,3.63
2023-03-16T10:29:00.984Z,3.60
2023-03-16T10:32:13.314Z,4.05
2023-03-16T10:35:38.048Z,4.03
2023-03-16T10:38:39.516Z,1.95
2023-03-16T10:41:47.798Z,2.17
2023-03-16T10:44:49.585Z,4.20
2023-03-16T10:47:51.138Z,4.10
2023-03-16T10:50:57.342Z,3.45
2023-03-16T10:54:04.949Z,2.33
2023-03-16T10:57:27.416Z,5.63
2023-03-16T11:00:38.425Z,5.30
2023-03-16T11:03:43.710Z,4.28
2023-03-16T11:06:56.939Z,1.95
2023-03-16T11:09:59.646Z,3.95
2023-03-16T11:13:22.648Z,4.70
2023-03-16T11:16:30.876Z,4.20
2023-03-16T11:19:38.687Z,4.65
2023-03-16T11:22:43.000Z,5.18
2023-03-16T11:25:48.554Z,2.72
2023-03-16T11:29:03.515Z,2.38
2023-03-16T11:32:11.963Z,2.30
2023-03-16T11:35:29.039Z,5.45
2023-03-16T11:38:44.029Z,4.20
2023-03-16T11:41:53.377Z,2.20
2023-03-16T11:45:19.650Z,4.03
2023-03-16T11:48:26.368Z,3.08
2023-03-16T11:51:45.754Z,3.08
2023-03-16T11:55:06.257Z,3.22
2023-03-16T11:58:29.232Z,4.38
2023-03-16T12:01:47.745Z,2.05
2023-03-16T12:05:17.693Z,3.58
2023-03-16T12:08:31.655Z,2.80
2023-03-16T12:11:40.917Z,2.88
2023-03-16T12:14:51.421Z,5.10
2023-03-16T12:17:57.473Z,6.80
2023-03-16T12:21:04.145Z,3.58
2023-03-16T12:24:14.856Z,7.50
2023-03-16T12:27:22.543Z,4.20
2023-03-16T12:30:39.503Z,3.08
2023-03-16T12:37:05.259Z,3.35
2023-03-16T12:40:25.781Z,2.28
2023-03-16T12:43:46.461Z,3.83
2023-03-16T12:47:04.507Z,6.20
2023-03-16T12:50:12.792Z,4.90
2023-03-16T12:53:44.057Z,5.18
2023-03-16T12:56:48.107Z,6.72
2023-03-16T12:59:57.445Z,3.25
2023-03-16T13:02:59.879Z,6.20
2023-03-16T13:06:03.365Z,3.22
2023-03-16T13:09:07.203Z,3.22
2023-03-16T13:12:10.384Z,3.38
2023-03-16T13:15:17.199Z,3.10
2023-03-16T13:18:22.093Z,3.30
2023-03-16T13:21:44.691Z,6.50
2023-03-16T13:25:14.252Z,4.35
2023-03-16T13:28:17.502Z,3.53
2023-03-16T13:31:41.192Z,5.30
2023-03-16T13:34:56.473Z,4.60
2023-03-16T13:38:05.739Z,1.52
2023-03-16T13:41:14.142Z,2.22
2023-03-16T13:44:15.893Z,3.83
2023-03-16T13:47:20.242Z,3.67
2023-03-16T13:50:22.137Z,2.67
2023-03-16T13:53:28.904Z,2.55
2023-03-16T13:56:32.625Z,3.10
2023-03-16T13:59:34.223Z,2.45
2023-03-16T14:02:43.576Z,2.92
2023-03-16T14:05:45.767Z,1.83
2023-03-16T14:08:50.628Z,5.65
2023-03-16T14:11:52.222Z,1.80
2023-03-16T14:14:55.719Z,1.73
2023-03-16T14:18:13.622Z,3.20
2023-03-16T14:21:22.866Z,2.20
2023-03-16T14:24:35.401Z,2.92
2023-03-16T14:27:40.462Z,1.75
2023-03-16T14:30:54.035Z,2.38
2023-03-16T14:34:01.755Z,2.58
2023-03-16T14:37:09.682Z,6.03
2023-03-16T14:40:30.722Z,2.95
2023-03-16T14:43:36.562Z,3.28
2023-03-16T14:46:41.116Z,2.05
2023-03-16T14:49:43.478Z,2.65
2023-03-16T14:52:45.815Z,1.50
2023-03-16T14:55:47.897Z,2.58
2023-03-16T14:58:49.367Z,3.42
2023-03-16T15:01:53.436Z,4.85
2023-03-16T15:04:56.937Z,4.93
2023-03-16T15:07:58.674Z,2.30
2023-03-16T15:11:04.830Z,3.08
2023-03-16T15:14:37.304Z,2.80
2023-03-16T15:17:38.827Z,3.60
2023-03-16T15:20:43.302Z,2.67
2023-03-16T15:23:45.103Z,5.82
2023-03-16T15:26:46.989Z,6.22
2023-03-16T15:29:48.644Z,73.43
2023-03-16T15:32:50.265Z,258.08
2023-03-16T15:35:57.793Z,180.35
2023-03-16T15:39:01.537Z,111.22
2023-03-16T15:42:06.038Z,70.80
2023-03-16T15:45:13.744Z,52.33
2023-03-16T15:48:16.862Z,37.67
2023-03-16T15:51:30.089Z,29.08
2023-03-16T15:54:33.884Z,21.08
2023-03-16T15:57:36.598Z,19.73
2023-03-16T16:00:39.557Z,17.23
2023-03-16T16:03:41.223Z,12.05
2023-03-16T16:06:43.660Z,10.48
2023-03-16T16:09:45.351Z,9.88
2023-03-16T16:12:53.082Z,11.18
2023-03-16T16:15:55.126Z,10.57
2023-03-16T16:18:56.893Z,7.65
2023-03-16T16:21:58.426Z,10.30
2023-03-16T16:24:59.959Z,10.13
2023-03-16T16:28:01.588Z,8.70
2023-03-16T16:31:03.168Z,9.48
2023-03-16T16:34:11.759Z,7.28
2023-03-16T16:37:13.296Z,7.93
2023-03-16T16:40:20.497Z,6.55
2023-03-16T16:43:30.842Z,8.02
2023-03-16T16:46:43.738Z,7.15
2023-03-16T16:49:45.384Z,6.47
2023-03-16T16:52:47.289Z,7.30
2023-03-16T16:55:49.346Z,6.18
2023-03-16T16:58:51.377Z,6.03
2023-03-16T17:01:57.311Z,5.50
2023-03-16T17:04:58.851Z,5.22
2023-03-16T17:08:04.066Z,6.95
2023-03-16T17:11:05.632Z,5.88
2023-03-16T17:14:10.525Z,6.18
2023-03-16T17:17:17.318Z,5.13
2023-03-16T17:20:25.823Z,5.85
2023-03-16T17:23:29.596Z,6.13
2023-03-16T17:26:37.222Z,5.53
2023-03-16T17:29:38.760Z,6.07
2023-03-16T17:32:40.509Z,6.32
2023-03-16T17:35:43.993Z,6.57
2023-03-16T17:38:45.564Z,7.78
2023-03-16T17:41:57.169Z,5.07
2023-03-16T17:44:58.870Z,6.13
2023-03-16T17:48:00.422Z,5.47
2023-03-16T17:51:01.929Z,6.10
2023-03-16T17:54:05.002Z,5.78
2023-03-16T17:57:16.316Z,4.68
2023-03-16T18:00:30.097Z,6.25
2023-03-16T18:03:32.574Z,7.00
2023-03-16T18:06:34.198Z,6.78
2023-03-16T18:09:35.658Z,6.15
2023-03-16T18:12:37.163Z,10.13
2023-03-16T18:15:39.306Z,6.95
2023-03-16T18:18:42.748Z,7.57
2023-03-16T18:21:45.604Z,7.68
2023-03-16T18:24:48.468Z,5.90
2023-03-16T18:27:51.236Z,9.07
2023-03-16T18:30:53.503Z,5.75
2023-03-16T18:33:57.878Z,7.65
2023-03-16T18:37:04.053Z,7.10
2023-03-16T18:40:06.478Z,6.63
2023-03-16T18:43:14.645Z,6.97
2023-03-16T18:46:33.313Z,5.53
2023-03-16T18:49:36.694Z,6.32
2023-03-16T18:52:40.255Z,6.40
2023-03-16T18:55:44.897Z,9.60
2023-03-16T18:58:48.093Z,7.72
2023-03-16T19:01:49.695Z,6.15
2023-03-16T19:04:51.288Z,6.43
2023-03-16T19:07:53.061Z,4.72
2023-03-16T19:10:58.932Z,6.45
2023-03-16T19:14:00.381Z,7.90
2023-03-16T19:17:02.190Z,5.63
2023-03-16T19:20:04.241Z,5.55
2023-03-16T19:23:32.627Z,6.18
2023-03-16T19:26:37.194Z,8.65
2023-03-16T19:29:38.752Z,6.47
2023-03-16T19:32:40.924Z,7.32
2023-03-16T19:35:51.429Z,6.38
2023-03-16T19:38:54.009Z,7.25
2023-03-16T19:41:58.332Z,5.22
2023-03-16T19:45:00.473Z,5.95
2023-03-16T19:48:02.153Z,4.70
2023-03-16T19:51:05.279Z,5.15
2023-03-16T19:54:06.883Z,4.63
2023-03-16T19:57:14.906Z,5.55
2023-03-16T20:00:26.600Z,5.50
2023-03-16T20:03:31.693Z,4.28
2023-03-16T20:06:33.262Z,4.43
2023-03-16T20:09:34.835Z,4.18
2023-03-16T20:12:38.379Z,5.03
2023-03-16T20:15:40.090Z,7.18
2023-03-16T20:18:41.734Z,5.22
2023-03-16T20:21:43.300Z,5.90
2023-03-16T20:24:45.709Z,6.85
2023-03-16T20:27:53.642Z,5.18
2023-03-16T20:30:55.362Z,4.45
2023-03-16T20:33:57.915Z,5.47
2023-03-16T20:36:59.605Z,4.28
2023-03-16T20:40:01.433Z,5.53
2023-03-16T20:43:03.973Z,6.05
2023-03-16T20:46:05.846Z,3.00
2023-03-16T20:49:22.491Z,3.80
2023-03-16T20:52:27.253Z,4.13
2023-03-16T20:55:31.246Z,8.15
2023-03-16T20:58:34.969Z,3.30
2023-03-16T21:01:38.758Z,5.07
2023-03-16T21:04:42.551Z,5.32
2023-03-16T21:07:44.050Z,3.78
2023-03-16T21:10:47.467Z,3.55
2023-03-16T21:13:48.952Z,3.90
2023-03-16T21:16:51.496Z,3.55
2023-03-16T21:19:52.956Z,4.63
2023-03-16T21:22:54.690Z,3.60
2023-03-16T21:26:01.292Z,4.57
2023-03-16T21:32:34.717Z,3.72
2023-03-16T21:35:37.790Z,2.53
2023-03-16T21:38:39.268Z,2.63
2023-03-16T21:41:41.096Z,2.67
2023-03-16T21:44:43.004Z,2.72
2023-03-16T21:47:45.983Z,3.97
2023-03-16T21:50:48.350Z,3.40
2023-03-16T21:53:49.840Z,2.72
2023-03-16T21:56:51.365Z,3.55
2023-03-16T21:59:52.843Z,3.15
2023-03-16T22:02:57.630Z,3.38
2023-03-16T22:06:00.330Z,3.80
2023-03-16T22:09:01.849Z,3.50
2023-03-16T22:12:03.421Z,2.97
2023-03-16T22:15:05.278Z,3.15
2023-03-16T22:18:13.724Z,3.40
2023-03-16T22:21:33.033Z,4.70
2023-03-16T22:24:36.322Z,3.38
2023-03-16T22:27:37.787Z,2.45
2023-03-16T22:30:39.876Z,3.45
2023-03-16T22:33:42.903Z,2.60
2023-03-16T22:36:44.390Z,3.30
2023-03-16T22:39:47.254Z,2.47
2023-03-16T22:42:48.892Z,2.80
2023-03-16T22:45:54.565Z,2.78
2023-03-16T22:48:56.708Z,4.20
2023-03-16T22:51:58.188Z,2.78
2023-03-16T22:55:01.587Z,3.33
2023-03-16T22:58:14.859Z,3.13
2023-03-16T23:01:20.808Z,2.42
2023-03-16T23:04:32.186Z,2.70
2023-03-16T23:07:34.254Z,3.78
2023-03-16T23:10:37.085Z,3.35
2023-03-16T23:13:38.611Z,2.28
2023-03-16T23:16:41.706Z,2.00
2023-03-16T23:19:43.557Z,2.47
2023-03-16T23:22:45.143Z,2.17
2023-03-16T23:25:47.788Z,2.72
2023-03-16T23:28:51.131Z,2.22
2023-03-16T23:31:53.580Z,2.78
2023-03-16T23:34:55.039Z,3.17
2023-03-16T23:37:56.562Z,2.25
2023-03-16T23:40:58.141Z,2.45
2023-03-16T23:44:00.427Z,2.90
2023-03-16T23:47:02.241Z,2.15
2023-03-16T23:50:05.980Z,2.55
2023-03-16T23:53:13.530Z,2.35
2023-03-16T23:56:15.511Z,1.90
2023-03-16T23:59:18.981Z,2.25
